Rutledge, GA (30663)

6:42 PM EDT on September 22, 2014 (GMT -0400)
Kennedy Intranational Airport | Change Station
CLOSE
Current Station
Personal Weather Station
Location: Newborn, GA
Elevation: 695 ft
Nearby Weather Stations

Elev 695 ft 33.53 °N, 83.64 °W | Updated 6 seconds ago

Clear
Clear
69.9 °F
Feels Like 69.9 °F
N
5.4
Wind Variable Wind from ESE
Gusts 7.0 mph

Today
High -- | Low -- °F
--% Chance of Precip.
Yesterday
High -- | Low -- °F
Precip. -- in
7:22 AM 7:31 PM
Waning Crescent, 2% visible
Pressure 30.03 in
Visibility 10.0 miles
Clouds Clear
Dew Point 65 °F
Humidity 84%
Rainfall 1.05 in
Snow Depth Not available.
UV 1 out of 12
Pollen 7.70 out of 12
Air Quality Not available.
Flu Activity Not available.
METAR KCVC 222235Z AUTO 08007KT 10SM CLR 23/16 A3003 RMK AO2

More Conditions Fewer Conditions

Pressure 30.03 in
Visibility 10.0 miles
Clouds Clear
Dew Point 65 °F
Humidity 84%
Rainfall 1.05 in
Snow Depth Not available.
UV 1 out of 12
Pollen 7.70 out of 12
Air Quality Not available.
Flu Activity Not available.
METAR KCVC 222235Z AUTO 08007KT 10SM CLR 23/16 A3003 RMK AO2

More Conditions Fewer Conditions

10-Day Weather Forecast

Almanac

Astronomy

Sep. 22, 2014 Rise Set
Actual Time 7:22 AM EDT 7:31 PM EDT
Civil Twilight 6:57 AM EDT 7:55 PM EDT
Nautical Twilight 6:28 AM EDT 8:24 PM EDT
Astronomical Twilight 5:59 AM EDT 8:54 PM EDT
Moon 5:53 AM EDT 6:36 PM EDT
Length of Visible Light 12h 58m
Length of Day
12h 08m
Tomorrow will be 2m 4s shorter.
Waning Crescent, 2% of the Moon is Illuminated
Today
Waning Crescent
Sep 24
New
Oct 1
First Quarter
Oct 8
Full
Oct 15
Last Quarter

Today's Extremes

State Highs State Lows

Community

WunderPhotos

Upload Photos

1,755,545 photos uploaded!

Nearby

Snow Depth

Station Depth Elevation
No new snow has been reported.

Earthquake Activity

City Distance Mag. Time & Date
New Ellenton, South Carolina 109 miles 2.6 4:38 PM EDT
2014-09-19
Minimum magnitude displayed is 2.5.

Coastal Water Temperatures

Place Temperature
No Stations Reporting

Nearby Weather Stations